F/V Stereden Ar Moor — FZZX — position and weather

sailwx.info

Track history (hours):
 
Tides and Currents Weather Stations Pressure Air Temp Water Temp Dewpoint Dewpoint Depression Visibility Wind Speed Wind Dir Waves Ship Positions

F/V Stereden Ar Moor

Last reported at 2017-Oct-18 06:58 UTC. Time now 2017-Oct-19 22:01 UTC.
Position N 47°49' W 004°24'.

Type: Fishing. MMSI: 228167900.

Date/timePositionNaut miles runAvg speedWind from/ knotsBaromVisibWave heightAir tempDewpointWater temp
2017-Oct-18 06:58N 47°49' W 004°24'1 1.9
2017-Oct-18 06:26N 47°49' W 004°23'0 0.0
2017-Oct-18 05:56N 47°49' W 004°23'0 0.0
2017-Oct-18 05:25N 47°49' W 004°23'0 0.0
2017-Oct-18 03:46N 47°49' W 004°23'0 0.0
2017-Oct-18 03:27N 47°49' W 004°23'0 0.0
2017-Oct-18 02:49N 47°49' W 004°23'0 0.0
2017-Oct-18 02:12N 47°49' W 004°23'0 1.6
2017-Oct-18 01:58N 47°49' W 004°23'4 9.1
2017-Oct-18 01:30N 47°51' W 004°28'5 9.5
2017-Oct-18 01:00N 47°54' W 004°34'5 9.4
2017-Oct-18 00:30N 47°56' W 004°40'4 8.9
2017-Oct-18 00:00N 47°58' W 004°46'1 1.5
2017-Oct-17 23:30N 47°58' W 004°47'1 1.9
2017-Oct-17 23:00N 47°57' W 004°47'0 0.8
2017-Oct-17 22:30N 47°58' W 004°47'1 2.8
2017-Oct-17 22:00N 47°57' W 004°45'1 1.7
2017-Oct-17 21:30N 47°56' W 004°45'2 3.3
2017-Oct-17 21:00N 47°55' W 004°43'510.3
2017-Oct-17 20:30N 47°53' W 004°36'510.4
2017-Oct-17 20:00N 47°49' W 004°30'610.4
2017-Oct-17 19:27N 47°47' W 004°22'3 6.4
2017-Oct-17 19:00N 47°45' W 004°19'5 9.4
2017-Oct-17 18:28N 47°44' W 004°11'3 7.2
2017-Oct-17 18:00N 47°45' W 004°16'5 9.0
2017-Oct-17 17:30N 47°47' W 004°22'2 4.9
2017-Oct-17 17:00N 47°49' W 004°23'0 0.0
2017-Oct-15 21:09N 47°49' W 004°23'0 0.0
2017-Oct-15 20:49N 47°49' W 004°23'2 5.6
2017-Oct-15 20:24N 47°51' W 004°25'4 7.2
2017-Oct-15 19:55N 47°54' W 004°26'2 5.0
2017-Oct-15 19:30N 47°52' W 004°24'4 7.4
2017-Oct-15 19:00N 47°55' W 004°28'3 6.0
2017-Oct-15 18:30N 47°57' W 004°32'2 4.4
2017-Oct-15 18:01N 47°57' W 004°29'6 9.4
2017-Oct-15 17:24N 47°53' W 004°24'3 7.9
2017-Oct-15 16:59N 47°49' W 004°24'1 1.2
2017-Oct-15 16:21N 47°49' W 004°23'  
2017-Oct-13 06:58N 47°49' W 004°24'5 8.8
2017-Oct-13 06:25N 47°54' W 004°27'1 1.7
2017-Oct-13 06:00N 47°54' W 004°27'0 0.4
2017-Oct-13 05:30N 47°54' W 004°27'3 5.3
2017-Oct-13 04:52N 47°57' W 004°30'3 6.8
2017-Oct-13 04:25N 47°55' W 004°32'1 2.0
2017-Oct-13 03:57N 47°54' W 004°31'0 0.3
2017-Oct-13 03:29N 47°54' W 004°31'1 1.5
2017-Oct-13 02:59N 47°54' W 004°30'0 0.2
2017-Oct-13 02:27N 47°54' W 004°30'1 1.8
2017-Oct-13 01:59N 47°55' W 004°28'0 0.6
2017-Oct-13 01:30N 47°54' W 004°28'1 2.8
2017-Oct-13 01:00N 47°54' W 004°26'3 5.0
2017-Oct-13 00:23N 47°51' W 004°26'3 6.6
2017-Oct-12 23:59N 47°49' W 004°23'0 0.0
2017-Oct-12 09:48N 47°49' W 004°23'1 0.3
2017-Oct-12 07:33N 47°49' W 004°24'5 9.3
2017-Oct-12 07:04N 47°53' W 004°27'3 9.2
2017-Oct-12 06:48N 47°55' W 004°28'3 7.7
2017-Oct-12 06:27N 47°57' W 004°30'0 0.4
2017-Oct-12 05:58N 47°57' W 004°30'0 0.3
2017-Oct-12 05:28N 47°57' W 004°30'0 0.3
2017-Oct-12 05:00N 47°57' W 004°30'2 3.0
2017-Oct-12 04:27N 47°56' W 004°30'3 5.9
2017-Oct-12 03:58N 47°57' W 004°34'2 3.9
2017-Oct-12 03:31N 47°58' W 004°31'1 2.4
2017-Oct-12 02:59N 47°57' W 004°29'2 4.9
2017-Oct-12 02:30N 47°56' W 004°26'2 3.0
2017-Oct-12 01:58N 47°55' W 004°29'8 7.8
2017-Oct-12 00:59N 47°49' W 004°24'0 0.0
2017-Oct-10 23:58N 47°49' W 004°24'3 3.6
2017-Oct-10 23:02N 47°46' W 004°21'0 0.6
2017-Oct-10 22:54N 47°46' W 004°21'0 0.2
2017-Oct-10 22:22N 47°46' W 004°20'1 1.6
2017-Oct-10 21:59N 47°46' W 004°20'4 0.2
2017-Oct-10 06:38N 47°49' W 004°23'7 8.5
2017-Oct-10 05:48N 47°55' W 004°27'4 9.6
2017-Oct-10 05:26N 47°56' W 004°32'2 5.2
2017-Oct-10 04:59N 47°55' W 004°35'2 4.2
2017-Oct-10 04:29N 47°56' W 004°32'2 4.0
2017-Oct-10 04:00N 47°56' W 004°35'0 0.7
2017-Oct-10 03:20N 47°55' W 004°34'0 0.7
2017-Oct-10 02:53N 47°56' W 004°34'0 0.5
2017-Oct-10 02:30N 47°55' W 004°34'1 1.9
2017-Oct-10 01:59N 47°55' W 004°33'0 0.5
2017-Oct-10 01:30N 47°55' W 004°33'1 0.6
2017-Oct-10 00:41N 47°54' W 004°32'0 0.4
2017-Oct-10 00:20N 47°54' W 004°32'1 1.9
2017-Oct-09 23:54N 47°53' W 004°32'0 0.6
2017-Oct-09 23:23N 47°53' W 004°31'2 4.4
2017-Oct-09 22:57N 47°55' W 004°31'3 6.9
2017-Oct-09 22:29N 47°58' W 004°31'5 8.7
2017-Oct-09 21:53N 47°55' W 004°25'6 7.4
2017-Oct-09 21:02N 47°49' W 004°23'0 0.1
2017-Oct-09 20:48N 47°49' W 004°23'0 0.0
2017-Oct-09 08:34N 47°49' W 004°23'4 1.3
2017-Oct-09 05:34N 47°46' W 004°19'6 3.4
2017-Oct-09 03:54N 47°44' W 004°11'2 1.7
2017-Oct-09 02:58N 47°44' W 004°14'1 0.8
2017-Oct-09 01:58N 47°44' W 004°12'1 0.8
2017-Oct-09 00:53N 47°44' W 004°11'6 6.9
2017-Oct-08 23:59N 47°45' W 004°20'2 2.1
2017-Oct-08 22:59N 47°45' W 004°17'1 1.2
2017-Oct-08 21:58N 47°45' W 004°19'  
Track history (hours):
 
Tides and Currents Weather Stations Pressure Air Temp Water Temp Dewpoint Dewpoint Depression Visibility Wind Speed Wind Dir Waves Ship Positions

F/V Stereden Ar Moor

Last reported at 2017-Oct-18 06:58 UTC. Time now 2017-Oct-19 22:01 UTC.
Position N 47°49' W 004°24'.

Type: Fishing. MMSI: 228167900.

Date/timePositionNaut miles runAvg speedWind from/ knotsBaromVisibWave heightAir tempDewpointWater temp
2017-Oct-18 06:58N 47°49' W 004°24'1 1.9
2017-Oct-18 06:26N 47°49' W 004°23'0 0.0
2017-Oct-18 05:56N 47°49' W 004°23'0 0.0
2017-Oct-18 05:25N 47°49' W 004°23'0 0.0
2017-Oct-18 03:46N 47°49' W 004°23'0 0.0
2017-Oct-18 03:27N 47°49' W 004°23'0 0.0
2017-Oct-18 02:49N 47°49' W 004°23'0 0.0
2017-Oct-18 02:12N 47°49' W 004°23'0 1.6
2017-Oct-18 01:58N 47°49' W 004°23'4 9.1
2017-Oct-18 01:30N 47°51' W 004°28'5 9.5
2017-Oct-18 01:00N 47°54' W 004°34'5 9.4
2017-Oct-18 00:30N 47°56' W 004°40'4 8.9
2017-Oct-18 00:00N 47°58' W 004°46'1 1.5
2017-Oct-17 23:30N 47°58' W 004°47'1 1.9
2017-Oct-17 23:00N 47°57' W 004°47'0 0.8
2017-Oct-17 22:30N 47°58' W 004°47'1 2.8
2017-Oct-17 22:00N 47°57' W 004°45'1 1.7
2017-Oct-17 21:30N 47°56' W 004°45'2 3.3
2017-Oct-17 21:00N 47°55' W 004°43'510.3
2017-Oct-17 20:30N 47°53' W 004°36'510.4
2017-Oct-17 20:00N 47°49' W 004°30'610.4
2017-Oct-17 19:27N 47°47' W 004°22'3 6.4
2017-Oct-17 19:00N 47°45' W 004°19'5 9.4
2017-Oct-17 18:28N 47°44' W 004°11'3 7.2
2017-Oct-17 18:00N 47°45' W 004°16'5 9.0
2017-Oct-17 17:30N 47°47' W 004°22'2 4.9
2017-Oct-17 17:00N 47°49' W 004°23'0 0.0
2017-Oct-15 21:09N 47°49' W 004°23'0 0.0
2017-Oct-15 20:49N 47°49' W 004°23'2 5.6
2017-Oct-15 20:24N 47°51' W 004°25'4 7.2
2017-Oct-15 19:55N 47°54' W 004°26'2 5.0
2017-Oct-15 19:30N 47°52' W 004°24'4 7.4
2017-Oct-15 19:00N 47°55' W 004°28'3 6.0
2017-Oct-15 18:30N 47°57' W 004°32'2 4.4
2017-Oct-15 18:01N 47°57' W 004°29'6 9.4
2017-Oct-15 17:24N 47°53' W 004°24'3 7.9
2017-Oct-15 16:59N 47°49' W 004°24'1 1.2
2017-Oct-15 16:21N 47°49' W 004°23'  
2017-Oct-13 06:58N 47°49' W 004°24'5 8.8
2017-Oct-13 06:25N 47°54' W 004°27'1 1.7
2017-Oct-13 06:00N 47°54' W 004°27'0 0.4
2017-Oct-13 05:30N 47°54' W 004°27'3 5.3
2017-Oct-13 04:52N 47°57' W 004°30'3 6.8
2017-Oct-13 04:25N 47°55' W 004°32'1 2.0
2017-Oct-13 03:57N 47°54' W 004°31'0 0.3
2017-Oct-13 03:29N 47°54' W 004°31'1 1.5
2017-Oct-13 02:59N 47°54' W 004°30'0 0.2
2017-Oct-13 02:27N 47°54' W 004°30'1 1.8
2017-Oct-13 01:59N 47°55' W 004°28'0 0.6
2017-Oct-13 01:30N 47°54' W 004°28'1 2.8
2017-Oct-13 01:00N 47°54' W 004°26'3 5.0
2017-Oct-13 00:23N 47°51' W 004°26'3 6.6
2017-Oct-12 23:59N 47°49' W 004°23'0 0.0
2017-Oct-12 09:48N 47°49' W 004°23'1 0.3
2017-Oct-12 07:33N 47°49' W 004°24'5 9.3
2017-Oct-12 07:04N 47°53' W 004°27'3 9.2
2017-Oct-12 06:48N 47°55' W 004°28'3 7.7
2017-Oct-12 06:27N 47°57' W 004°30'0 0.4
2017-Oct-12 05:58N 47°57' W 004°30'0 0.3
2017-Oct-12 05:28N 47°57' W 004°30'0 0.3
2017-Oct-12 05:00N 47°57' W 004°30'2 3.0
2017-Oct-12 04:27N 47°56' W 004°30'3 5.9
2017-Oct-12 03:58N 47°57' W 004°34'2 3.9
2017-Oct-12 03:31N 47°58' W 004°31'1 2.4
2017-Oct-12 02:59N 47°57' W 004°29'2 4.9
2017-Oct-12 02:30N 47°56' W 004°26'2 3.0
2017-Oct-12 01:58N 47°55' W 004°29'8 7.8
2017-Oct-12 00:59N 47°49' W 004°24'0 0.0
2017-Oct-10 23:58N 47°49' W 004°24'3 3.6
2017-Oct-10 23:02N 47°46' W 004°21'0 0.6
2017-Oct-10 22:54N 47°46' W 004°21'0 0.2
2017-Oct-10 22:22N 47°46' W 004°20'1 1.6
2017-Oct-10 21:59N 47°46' W 004°20'4 0.2
2017-Oct-10 06:38N 47°49' W 004°23'7 8.5
2017-Oct-10 05:48N 47°55' W 004°27'4 9.6
2017-Oct-10 05:26N 47°56' W 004°32'2 5.2
2017-Oct-10 04:59N 47°55' W 004°35'2 4.2
2017-Oct-10 04:29N 47°56' W 004°32'2 4.0
2017-Oct-10 04:00N 47°56' W 004°35'0 0.7
2017-Oct-10 03:20N 47°55' W 004°34'0 0.7
2017-Oct-10 02:53N 47°56' W 004°34'0 0.5
2017-Oct-10 02:30N 47°55' W 004°34'1 1.9
2017-Oct-10 01:59N 47°55' W 004°33'0 0.5
2017-Oct-10 01:30N 47°55' W 004°33'1 0.6
2017-Oct-10 00:41N 47°54' W 004°32'0 0.4
2017-Oct-10 00:20N 47°54' W 004°32'1 1.9
2017-Oct-09 23:54N 47°53' W 004°32'0 0.6
2017-Oct-09 23:23N 47°53' W 004°31'2 4.4
2017-Oct-09 22:57N 47°55' W 004°31'3 6.9
2017-Oct-09 22:29N 47°58' W 004°31'5 8.7
2017-Oct-09 21:53N 47°55' W 004°25'6 7.4
2017-Oct-09 21:02N 47°49' W 004°23'0 0.1
2017-Oct-09 20:48N 47°49' W 004°23'0 0.0
2017-Oct-09 08:34N 47°49' W 004°23'4 1.3
2017-Oct-09 05:34N 47°46' W 004°19'6 3.4
2017-Oct-09 03:54N 47°44' W 004°11'2 1.7
2017-Oct-09 02:58N 47°44' W 004°14'1 0.8
2017-Oct-09 01:58N 47°44' W 004°12'1 0.8
2017-Oct-09 00:53N 47°44' W 004°11'6 6.9
2017-Oct-08 23:59N 47°45' W 004°20'2 2.1
2017-Oct-08 22:59N 47°45' W 004°17'1 1.2
2017-Oct-08 21:58N 47°45' W 004°19'  

Dump ship's entire track history